sensor_id;sensor_type;location;lat;lon;timestamp;P1;durP1;ratioP1;P2;durP2;ratioP2
53674;SDS011;39574;50.534;8.500;2023-05-10T00:00:12;2.1;;;0.3;;
53674;SDS011;39574;50.534;8.500;2023-05-10T00:05:11;2.1;;;0.3;;
53674;SDS011;39574;50.534;8.500;2023-05-10T00:10:11;2.1;;;0.4;;
53674;SDS011;39574;50.534;8.500;2023-05-10T00:15:10;2.1;;;0.4;;
53674;SDS011;39574;50.534;8.500;2023-05-10T00:20:09;2.1;;;0.4;;
53674;SDS011;39574;50.534;8.500;2023-05-10T00:25:08;2.2;;;0.4;;
53674;SDS011;39574;50.534;8.500;2023-05-10T00:30:07;2.2;;;0.4;;
53674;SDS011;39574;50.534;8.500;2023-05-10T00:35:06;2.1;;;0.4;;
53674;SDS011;39574;50.534;8.500;2023-05-10T00:40:06;2.1;;;0.4;;
53674;SDS011;39574;50.534;8.500;2023-05-10T00:45:05;2.1;;;0.4;;
53674;SDS011;39574;50.534;8.500;2023-05-10T00:50:04;2.1;;;0.4;;
53674;SDS011;39574;50.534;8.500;2023-05-10T00:55:03;2.1;;;0.4;;
53674;SDS011;39574;50.534;8.500;2023-05-10T01:00:04;2.1;;;0.4;;
53674;SDS011;39574;50.534;8.500;2023-05-10T01:05:01;2.1;;;0.4;;
53674;SDS011;39574;50.534;8.500;2023-05-10T01:10:00;2.1;;;0.3;;
53674;SDS011;39574;50.534;8.500;2023-05-10T01:14:59;2.1;;;0.4;;
53674;SDS011;39574;50.534;8.500;2023-05-10T01:19:59;2.1;;;0.4;;
53674;SDS011;39574;50.534;8.500;2023-05-10T01:25:04;2.1;;;0.4;;
53674;SDS011;39574;50.534;8.500;2023-05-10T01:30:02;2.1;;;0.5;;
53674;SDS011;39574;50.534;8.500;2023-05-10T01:34:59;2.1;;;0.5;;
53674;SDS011;39574;50.534;8.500;2023-05-10T01:39:58;2.1;;;0.4;;
53674;SDS011;39574;50.534;8.500;2023-05-10T01:44:56;2.1;;;0.4;;
53674;SDS011;39574;50.534;8.500;2023-05-10T01:49:54;2.1;;;0.4;;
53674;SDS011;39574;50.534;8.500;2023-05-10T01:54:53;2.1;;;0.4;;
53674;SDS011;39574;50.534;8.500;2023-05-10T01:59:52;2.1;;;0.4;;
53674;SDS011;39574;50.534;8.500;2023-05-10T02:04:51;2.1;;;0.4;;
53674;SDS011;39574;50.534;8.500;2023-05-10T02:09:52;2.1;;;0.4;;
53674;SDS011;39574;50.534;8.500;2023-05-10T02:14:50;2.1;;;0.4;;
53674;SDS011;39574;50.534;8.500;2023-05-10T02:19:49;2.1;;;0.4;;
53674;SDS011;39574;50.534;8.500;2023-05-10T02:24:48;2.1;;;0.4;;
53674;SDS011;39574;50.534;8.500;2023-05-10T02:29:47;2.1;;;0.4;;
53674;SDS011;39574;50.534;8.500;2023-05-10T02:34:46;2.1;;;0.4;;
53674;SDS011;39574;50.534;8.500;2023-05-10T02:39:46;2.5;;;0.6;;
53674;SDS011;39574;50.534;8.500;2023-05-10T02:44:45;2.4;;;0.6;;
53674;SDS011;39574;50.534;8.500;2023-05-10T02:49:44;2.3;;;0.5;;
53674;SDS011;39574;50.534;8.500;2023-05-10T02:54:43;2.2;;;0.5;;
53674;SDS011;39574;50.534;8.500;2023-05-10T02:59:42;2.1;;;0.4;;
53674;SDS011;39574;50.534;8.500;2023-05-10T03:04:41;2.1;;;0.4;;
53674;SDS011;39574;50.534;8.500;2023-05-10T03:09:40;2.1;;;0.4;;
53674;SDS011;39574;50.534;8.500;2023-05-10T03:14:42;2.1;;;0.5;;
53674;SDS011;39574;50.534;8.500;2023-05-10T03:19:40;2.1;;;0.5;;
53674;SDS011;39574;50.534;8.500;2023-05-10T03:24:38;2.1;;;0.5;;
53674;SDS011;39574;50.534;8.500;2023-05-10T03:34:40;2.1;;;0.5;;
53674;SDS011;39574;50.534;8.500;2023-05-10T03:39:35;2.1;;;0.5;;
53674;SDS011;39574;50.534;8.500;2023-05-10T03:44:35;2.1;;;0.4;;
53674;SDS011;39574;50.534;8.500;2023-05-10T03:49:33;2.1;;;0.4;;
53674;SDS011;39574;50.534;8.500;2023-05-10T03:54:33;2.4;;;0.7;;
53674;SDS011;39574;50.534;8.500;2023-05-10T03:59:32;2.3;;;0.6;;
53674;SDS011;39574;50.534;8.500;2023-05-10T04:04:31;2.2;;;0.6;;
53674;SDS011;39574;50.534;8.500;2023-05-10T04:09:30;2.2;;;0.5;;
53674;SDS011;39574;50.534;8.500;2023-05-10T04:14:29;2.1;;;0.5;;
53674;SDS011;39574;50.534;8.500;2023-05-10T04:19:29;2.3;;;0.6;;
53674;SDS011;39574;50.534;8.500;2023-05-10T04:24:27;2.2;;;0.5;;
53674;SDS011;39574;50.534;8.500;2023-05-10T04:29:27;2.2;;;0.5;;
53674;SDS011;39574;50.534;8.500;2023-05-10T04:34:27;2.1;;;0.5;;
53674;SDS011;39574;50.534;8.500;2023-05-10T04:39:25;2.1;;;0.4;;
53674;SDS011;39574;50.534;8.500;2023-05-10T04:44:24;2.1;;;0.4;;
53674;SDS011;39574;50.534;8.500;2023-05-10T04:49:23;2.1;;;0.4;;
53674;SDS011;39574;50.534;8.500;2023-05-10T04:54:23;2.1;;;0.4;;
53674;SDS011;39574;50.534;8.500;2023-05-10T04:59:22;2.1;;;0.4;;
53674;SDS011;39574;50.534;8.500;2023-05-10T05:04:21;2.1;;;0.4;;
53674;SDS011;39574;50.534;8.500;2023-05-10T05:09:20;2.2;;;0.4;;
53674;SDS011;39574;50.534;8.500;2023-05-10T05:14:19;2.1;;;0.5;;
53674;SDS011;39574;50.534;8.500;2023-05-10T05:19:19;2.2;;;0.6;;
53674;SDS011;39574;50.534;8.500;2023-05-10T05:24:18;2.1;;;0.5;;
53674;SDS011;39574;50.534;8.500;2023-05-10T05:29:17;2.1;;;0.5;;
53674;SDS011;39574;50.534;8.500;2023-05-10T05:34:16;2.1;;;0.5;;
53674;SDS011;39574;50.534;8.500;2023-05-10T05:39:15;2.1;;;0.5;;
53674;SDS011;39574;50.534;8.500;2023-05-10T05:44:14;2.1;;;0.4;;
53674;SDS011;39574;50.534;8.500;2023-05-10T05:49:13;2.1;;;0.5;;
53674;SDS011;39574;50.534;8.500;2023-05-10T05:54:13;2.2;;;0.6;;
53674;SDS011;39574;50.534;8.500;2023-05-10T05:59:12;3.0;;;0.6;;
53674;SDS011;39574;50.534;8.500;2023-05-10T06:04:11;2.8;;;0.6;;
53674;SDS011;39574;50.534;8.500;2023-05-10T06:09:11;2.8;;;0.6;;
53674;SDS011;39574;50.534;8.500;2023-05-10T06:14:10;2.5;;;0.5;;
53674;SDS011;39574;50.534;8.500;2023-05-10T06:19:09;2.3;;;0.6;;
53674;SDS011;39574;50.534;8.500;2023-05-10T06:24:08;2.2;;;0.5;;
53674;SDS011;39574;50.534;8.500;2023-05-10T06:29:07;2.1;;;0.5;;
53674;SDS011;39574;50.534;8.500;2023-05-10T06:34:06;2.1;;;0.5;;
53674;SDS011;39574;50.534;8.500;2023-05-10T06:39:05;2.6;;;0.7;;
53674;SDS011;39574;50.534;8.500;2023-05-10T06:44:05;2.5;;;0.6;;
53674;SDS011;39574;50.534;8.500;2023-05-10T06:49:04;2.4;;;0.6;;
53674;SDS011;39574;50.534;8.500;2023-05-10T06:54:03;2.3;;;0.6;;
53674;SDS011;39574;50.534;8.500;2023-05-10T06:59:02;2.2;;;0.5;;
53674;SDS011;39574;50.534;8.500;2023-05-10T07:04:01;2.3;;;0.6;;
53674;SDS011;39574;50.534;8.500;2023-05-10T07:09:01;2.3;;;0.6;;
53674;SDS011;39574;50.534;8.500;2023-05-10T07:14:00;2.2;;;0.6;;
53674;SDS011;39574;50.534;8.500;2023-05-10T07:19:01;2.3;;;0.5;;
53674;SDS011;39574;50.534;8.500;2023-05-10T07:23:58;2.3;;;0.5;;
53674;SDS011;39574;50.534;8.500;2023-05-10T07:28:58;2.2;;;0.5;;
53674;SDS011;39574;50.534;8.500;2023-05-10T07:33:57;2.2;;;0.5;;
53674;SDS011;39574;50.534;8.500;2023-05-10T07:38:56;2.2;;;0.5;;
53674;SDS011;39574;50.534;8.500;2023-05-10T07:43:55;2.1;;;0.4;;
53674;SDS011;39574;50.534;8.500;2023-05-10T07:48:54;2.1;;;0.4;;
53674;SDS011;39574;50.534;8.500;2023-05-10T07:53:54;2.1;;;0.4;;
53674;SDS011;39574;50.534;8.500;2023-05-10T07:58:53;2.2;;;0.5;;
53674;SDS011;39574;50.534;8.500;2023-05-10T08:03:52;2.2;;;0.5;;
53674;SDS011;39574;50.534;8.500;2023-05-10T08:08:51;2.3;;;0.6;;
53674;SDS011;39574;50.534;8.500;2023-05-10T08:13:51;2.3;;;0.6;;
53674;SDS011;39574;50.534;8.500;2023-05-10T08:18:50;2.2;;;0.5;;
53674;SDS011;39574;50.534;8.500;2023-05-10T08:23:49;2.1;;;0.5;;
53674;SDS011;39574;50.534;8.500;2023-05-10T08:28:49;2.3;;;0.6;;
53674;SDS011;39574;50.534;8.500;2023-05-10T08:33:48;2.3;;;0.6;;
53674;SDS011;39574;50.534;8.500;2023-05-10T08:38:49;2.2;;;0.6;;
53674;SDS011;39574;50.534;8.500;2023-05-10T08:43:46;2.2;;;0.6;;
53674;SDS011;39574;50.534;8.500;2023-05-10T08:48:46;2.2;;;0.6;;
53674;SDS011;39574;50.534;8.500;2023-05-10T08:53:45;2.1;;;0.6;;
53674;SDS011;39574;50.534;8.500;2023-05-10T08:58:44;2.1;;;0.5;;
53674;SDS011;39574;50.534;8.500;2023-05-10T09:03:43;2.1;;;0.4;;
53674;SDS011;39574;50.534;8.500;2023-05-10T09:08:42;2.3;;;0.6;;
53674;SDS011;39574;50.534;8.500;2023-05-10T09:13:41;2.4;;;0.7;;
53674;SDS011;39574;50.534;8.500;2023-05-10T09:18:42;2.3;;;0.6;;
53674;SDS011;39574;50.534;8.500;2023-05-10T09:23:42;2.2;;;0.5;;
53674;SDS011;39574;50.534;8.500;2023-05-10T09:28:49;2.1;;;0.4;;
53674;SDS011;39574;50.534;8.500;2023-05-10T09:33:43;2.1;;;0.4;;
53674;SDS011;39574;50.534;8.500;2023-05-10T09:38:44;2.2;;;0.5;;
53674;SDS011;39574;50.534;8.500;2023-05-10T09:43:37;2.2;;;0.5;;
53674;SDS011;39574;50.534;8.500;2023-05-10T09:48:39;2.2;;;0.5;;
53674;SDS011;39574;50.534;8.500;2023-05-10T09:53:36;2.4;;;0.7;;
53674;SDS011;39574;50.534;8.500;2023-05-10T09:58:35;2.3;;;0.7;;
53674;SDS011;39574;50.534;8.500;2023-05-10T10:03:34;2.3;;;0.6;;
53674;SDS011;39574;50.534;8.500;2023-05-10T10:08:33;2.6;;;0.6;;
53674;SDS011;39574;50.534;8.500;2023-05-10T10:13:32;2.5;;;0.5;;
53674;SDS011;39574;50.534;8.500;2023-05-10T10:18:32;2.3;;;0.5;;
53674;SDS011;39574;50.534;8.500;2023-05-10T10:23:31;2.3;;;0.5;;
53674;SDS011;39574;50.534;8.500;2023-05-10T10:28:33;2.2;;;0.5;;
53674;SDS011;39574;50.534;8.500;2023-05-10T10:33:33;2.2;;;0.5;;
53674;SDS011;39574;50.534;8.500;2023-05-10T10:38:36;2.2;;;0.5;;
53674;SDS011;39574;50.534;8.500;2023-05-10T10:43:28;2.2;;;0.5;;
53674;SDS011;39574;50.534;8.500;2023-05-10T10:48:28;2.4;;;0.7;;
53674;SDS011;39574;50.534;8.500;2023-05-10T10:53:27;2.5;;;0.8;;
53674;SDS011;39574;50.534;8.500;2023-05-10T10:58:30;2.4;;;0.7;;
53674;SDS011;39574;50.534;8.500;2023-05-10T11:03:25;2.8;;;0.8;;
53674;SDS011;39574;50.534;8.500;2023-05-10T11:08:26;2.5;;;0.6;;
53674;SDS011;39574;50.534;8.500;2023-05-10T11:13:27;2.5;;;0.8;;
53674;SDS011;39574;50.534;8.500;2023-05-10T11:18:24;2.4;;;0.8;;
53674;SDS011;39574;50.534;8.500;2023-05-10T11:23:23;2.4;;;0.8;;
53674;SDS011;39574;50.534;8.500;2023-05-10T11:28:22;2.3;;;0.6;;
53674;SDS011;39574;50.534;8.500;2023-05-10T11:33:21;2.3;;;0.7;;
53674;SDS011;39574;50.534;8.500;2023-05-10T11:38:20;2.5;;;0.9;;
53674;SDS011;39574;50.534;8.500;2023-05-10T11:43:19;2.4;;;0.8;;
53674;SDS011;39574;50.534;8.500;2023-05-10T11:48:19;2.3;;;0.6;;
53674;SDS011;39574;50.534;8.500;2023-05-10T11:53:19;2.2;;;0.5;;
53674;SDS011;39574;50.534;8.500;2023-05-10T11:58:18;2.2;;;0.5;;
53674;SDS011;39574;50.534;8.500;2023-05-10T12:03:16;2.2;;;0.5;;
53674;SDS011;39574;50.534;8.500;2023-05-10T12:08:19;2.2;;;0.4;;
53674;SDS011;39574;50.534;8.500;2023-05-10T12:13:15;2.1;;;0.4;;
53674;SDS011;39574;50.534;8.500;2023-05-10T12:18:14;2.1;;;0.4;;
53674;SDS011;39574;50.534;8.500;2023-05-10T12:23:13;2.5;;;0.5;;
53674;SDS011;39574;50.534;8.500;2023-05-10T12:28:13;2.5;;;0.5;;
53674;SDS011;39574;50.534;8.500;2023-05-10T12:33:13;2.6;;;0.7;;
53674;SDS011;39574;50.534;8.500;2023-05-10T12:38:27;2.8;;;1.0;;
53674;SDS011;39574;50.534;8.500;2023-05-10T12:43:10;2.8;;;0.9;;
53674;SDS011;39574;50.534;8.500;2023-05-10T12:48:10;2.5;;;0.8;;
53674;SDS011;39574;50.534;8.500;2023-05-10T12:53:09;2.4;;;0.6;;
53674;SDS011;39574;50.534;8.500;2023-05-10T12:58:08;2.4;;;0.7;;
53674;SDS011;39574;50.534;8.500;2023-05-10T13:03:08;2.4;;;0.7;;
53674;SDS011;39574;50.534;8.500;2023-05-10T13:08:07;2.3;;;0.5;;
53674;SDS011;39574;50.534;8.500;2023-05-10T13:13:06;2.2;;;0.5;;
53674;SDS011;39574;50.534;8.500;2023-05-10T13:18:05;2.1;;;0.4;;
53674;SDS011;39574;50.534;8.500;2023-05-10T13:23:05;2.2;;;0.4;;
53674;SDS011;39574;50.534;8.500;2023-05-10T13:28:04;2.2;;;0.4;;
53674;SDS011;39574;50.534;8.500;2023-05-10T13:33:03;2.2;;;0.4;;
53674;SDS011;39574;50.534;8.500;2023-05-10T13:38:03;2.1;;;0.3;;
53674;SDS011;39574;50.534;8.500;2023-05-10T13:43:02;2.1;;;0.4;;
53674;SDS011;39574;50.534;8.500;2023-05-10T13:48:01;2.1;;;0.4;;
53674;SDS011;39574;50.534;8.500;2023-05-10T13:53:00;2.1;;;0.5;;
53674;SDS011;39574;50.534;8.500;2023-05-10T13:58:00;2.4;;;0.5;;
53674;SDS011;39574;50.534;8.500;2023-05-10T14:02:59;4.0;;;0.7;;
53674;SDS011;39574;50.534;8.500;2023-05-10T14:07:58;3.5;;;0.6;;
53674;SDS011;39574;50.534;8.500;2023-05-10T14:12:58;3.0;;;0.5;;
53674;SDS011;39574;50.534;8.500;2023-05-10T14:17:57;2.6;;;0.5;;
53674;SDS011;39574;50.534;8.500;2023-05-10T14:22:56;2.1;;;0.5;;
53674;SDS011;39574;50.534;8.500;2023-05-10T14:27:56;2.1;;;0.5;;
53674;SDS011;39574;50.534;8.500;2023-05-10T14:32:55;2.1;;;0.4;;
53674;SDS011;39574;50.534;8.500;2023-05-10T14:37:55;2.1;;;0.4;;
53674;SDS011;39574;50.534;8.500;2023-05-10T14:42:54;2.1;;;0.4;;
53674;SDS011;39574;50.534;8.500;2023-05-10T14:47:53;2.4;;;0.5;;
53674;SDS011;39574;50.534;8.500;2023-05-10T14:52:53;2.3;;;0.5;;
53674;SDS011;39574;50.534;8.500;2023-05-10T14:57:52;2.3;;;0.5;;
53674;SDS011;39574;50.534;8.500;2023-05-10T15:02:51;2.2;;;0.5;;
53674;SDS011;39574;50.534;8.500;2023-05-10T15:07:51;2.1;;;0.4;;
53674;SDS011;39574;50.534;8.500;2023-05-10T15:12:50;2.1;;;0.4;;
53674;SDS011;39574;50.534;8.500;2023-05-10T15:17:49;2.1;;;0.4;;
53674;SDS011;39574;50.534;8.500;2023-05-10T15:22:48;2.1;;;0.4;;
53674;SDS011;39574;50.534;8.500;2023-05-10T15:27:48;2.1;;;0.4;;
53674;SDS011;39574;50.534;8.500;2023-05-10T15:32:47;2.1;;;0.4;;
53674;SDS011;39574;50.534;8.500;2023-05-10T15:37:47;2.2;;;0.5;;
53674;SDS011;39574;50.534;8.500;2023-05-10T15:42:46;2.1;;;0.4;;
53674;SDS011;39574;50.534;8.500;2023-05-10T15:47:45;2.3;;;0.6;;
53674;SDS011;39574;50.534;8.500;2023-05-10T15:52:44;2.2;;;0.6;;
53674;SDS011;39574;50.534;8.500;2023-05-10T15:57:44;2.2;;;0.5;;
53674;SDS011;39574;50.534;8.500;2023-05-10T16:02:43;2.2;;;0.5;;
53674;SDS011;39574;50.534;8.500;2023-05-10T16:07:42;2.1;;;0.4;;
53674;SDS011;39574;50.534;8.500;2023-05-10T16:12:42;2.1;;;0.4;;
53674;SDS011;39574;50.534;8.500;2023-05-10T16:17:41;2.1;;;0.4;;
53674;SDS011;39574;50.534;8.500;2023-05-10T16:22:41;2.1;;;0.4;;
53674;SDS011;39574;50.534;8.500;2023-05-10T16:27:40;2.6;;;0.5;;
53674;SDS011;39574;50.534;8.500;2023-05-10T16:32:39;2.5;;;0.5;;
53674;SDS011;39574;50.534;8.500;2023-05-10T16:37:39;2.4;;;0.5;;
53674;SDS011;39574;50.534;8.500;2023-05-10T16:42:38;2.3;;;0.5;;
53674;SDS011;39574;50.534;8.500;2023-05-10T16:47:38;2.3;;;0.4;;
53674;SDS011;39574;50.534;8.500;2023-05-10T16:52:37;2.3;;;0.4;;
53674;SDS011;39574;50.534;8.500;2023-05-10T16:57:36;2.2;;;0.5;;
53674;SDS011;39574;50.534;8.500;2023-05-10T17:02:35;2.2;;;0.5;;
53674;SDS011;39574;50.534;8.500;2023-05-10T17:07:35;2.1;;;0.4;;
53674;SDS011;39574;50.534;8.500;2023-05-10T17:12:34;2.1;;;0.4;;
53674;SDS011;39574;50.534;8.500;2023-05-10T17:17:33;2.1;;;0.4;;
53674;SDS011;39574;50.534;8.500;2023-05-10T17:22:33;2.1;;;0.4;;
53674;SDS011;39574;50.534;8.500;2023-05-10T17:27:32;2.1;;;0.4;;
53674;SDS011;39574;50.534;8.500;2023-05-10T17:32:31;2.1;;;0.4;;
53674;SDS011;39574;50.534;8.500;2023-05-10T17:37:31;2.2;;;0.5;;
53674;SDS011;39574;50.534;8.500;2023-05-10T17:42:30;2.2;;;0.5;;
53674;SDS011;39574;50.534;8.500;2023-05-10T17:47:29;2.1;;;0.4;;
53674;SDS011;39574;50.534;8.500;2023-05-10T17:52:28;2.1;;;0.4;;
53674;SDS011;39574;50.534;8.500;2023-05-10T17:57:28;2.1;;;0.4;;
53674;SDS011;39574;50.534;8.500;2023-05-10T18:02:27;2.1;;;0.4;;
53674;SDS011;39574;50.534;8.500;2023-05-10T18:07:26;2.1;;;0.4;;
53674;SDS011;39574;50.534;8.500;2023-05-10T18:12:26;2.1;;;0.4;;
53674;SDS011;39574;50.534;8.500;2023-05-10T18:17:25;2.2;;;0.5;;
53674;SDS011;39574;50.534;8.500;2023-05-10T18:22:24;2.1;;;0.5;;
53674;SDS011;39574;50.534;8.500;2023-05-10T18:27:24;2.2;;;0.5;;
53674;SDS011;39574;50.534;8.500;2023-05-10T18:32:23;2.2;;;0.6;;
53674;SDS011;39574;50.534;8.500;2023-05-10T18:37:22;2.2;;;0.5;;
53674;SDS011;39574;50.534;8.500;2023-05-10T18:42:21;2.2;;;0.5;;
53674;SDS011;39574;50.534;8.500;2023-05-10T18:47:21;2.4;;;0.5;;
53674;SDS011;39574;50.534;8.500;2023-05-10T18:52:20;2.3;;;0.5;;
53674;SDS011;39574;50.534;8.500;2023-05-10T18:57:19;2.4;;;0.7;;
53674;SDS011;39574;50.534;8.500;2023-05-10T19:02:18;2.3;;;0.6;;
53674;SDS011;39574;50.534;8.500;2023-05-10T19:07:18;2.2;;;0.6;;
53674;SDS011;39574;50.534;8.500;2023-05-10T19:12:17;2.2;;;0.5;;
53674;SDS011;39574;50.534;8.500;2023-05-10T19:17:16;2.2;;;0.5;;
53674;SDS011;39574;50.534;8.500;2023-05-10T19:22:16;2.2;;;0.4;;
53674;SDS011;39574;50.534;8.500;2023-05-10T19:27:15;2.1;;;0.4;;
53674;SDS011;39574;50.534;8.500;2023-05-10T19:32:14;2.1;;;0.4;;
53674;SDS011;39574;50.534;8.500;2023-05-10T19:37:13;2.1;;;0.4;;
53674;SDS011;39574;50.534;8.500;2023-05-10T19:42:12;2.1;;;0.4;;
53674;SDS011;39574;50.534;8.500;2023-05-10T19:47:12;2.1;;;0.4;;
53674;SDS011;39574;50.534;8.500;2023-05-10T19:52:11;2.2;;;0.5;;
53674;SDS011;39574;50.534;8.500;2023-05-10T19:57:10;2.4;;;0.7;;
53674;SDS011;39574;50.534;8.500;2023-05-10T20:02:09;2.4;;;0.6;;
53674;SDS011;39574;50.534;8.500;2023-05-10T20:07:08;2.3;;;0.5;;
53674;SDS011;39574;50.534;8.500;2023-05-10T20:12:08;2.3;;;0.5;;
53674;SDS011;39574;50.534;8.500;2023-05-10T20:17:07;2.2;;;0.4;;
53674;SDS011;39574;50.534;8.500;2023-05-10T20:22:06;2.1;;;0.4;;
53674;SDS011;39574;50.534;8.500;2023-05-10T20:27:05;2.1;;;0.4;;
53674;SDS011;39574;50.534;8.500;2023-05-10T20:32:05;2.1;;;0.4;;
53674;SDS011;39574;50.534;8.500;2023-05-10T20:37:04;2.1;;;0.5;;
53674;SDS011;39574;50.534;8.500;2023-05-10T20:47:02;2.1;;;0.5;;
53674;SDS011;39574;50.534;8.500;2023-05-10T20:52:02;2.2;;;0.5;;
53674;SDS011;39574;50.534;8.500;2023-05-10T20:57:01;2.2;;;0.5;;
53674;SDS011;39574;50.534;8.500;2023-05-10T21:02:00;2.1;;;0.5;;
53674;SDS011;39574;50.534;8.500;2023-05-10T21:06:59;2.1;;;0.5;;
53674;SDS011;39574;50.534;8.500;2023-05-10T21:11:58;2.1;;;0.5;;
53674;SDS011;39574;50.534;8.500;2023-05-10T21:16:58;2.3;;;0.5;;
53674;SDS011;39574;50.534;8.500;2023-05-10T21:21:57;2.2;;;0.4;;
53674;SDS011;39574;50.534;8.500;2023-05-10T21:26:56;2.2;;;0.4;;
53674;SDS011;39574;50.534;8.500;2023-05-10T21:31:55;2.1;;;0.4;;
53674;SDS011;39574;50.534;8.500;2023-05-10T21:36:55;2.1;;;0.4;;
53674;SDS011;39574;50.534;8.500;2023-05-10T21:41:54;2.1;;;0.4;;
53674;SDS011;39574;50.534;8.500;2023-05-10T21:46:53;2.1;;;0.4;;
53674;SDS011;39574;50.534;8.500;2023-05-10T21:51:52;2.1;;;0.4;;
53674;SDS011;39574;50.534;8.500;2023-05-10T21:56:51;2.2;;;0.4;;
53674;SDS011;39574;50.534;8.500;2023-05-10T22:01:51;2.1;;;0.5;;
53674;SDS011;39574;50.534;8.500;2023-05-10T22:06:50;2.2;;;0.6;;
53674;SDS011;39574;50.534;8.500;2023-05-10T22:11:49;2.1;;;0.5;;
53674;SDS011;39574;50.534;8.500;2023-05-10T22:16:48;2.1;;;0.5;;
53674;SDS011;39574;50.534;8.500;2023-05-10T22:21:47;2.1;;;0.5;;
53674;SDS011;39574;50.534;8.500;2023-05-10T22:26:46;2.1;;;0.5;;
53674;SDS011;39574;50.534;8.500;2023-05-10T22:31:45;2.3;;;0.6;;
53674;SDS011;39574;50.534;8.500;2023-05-10T22:36:45;2.2;;;0.6;;
53674;SDS011;39574;50.534;8.500;2023-05-10T22:41:44;2.2;;;0.5;;
53674;SDS011;39574;50.534;8.500;2023-05-10T22:46:43;2.1;;;0.5;;
53674;SDS011;39574;50.534;8.500;2023-05-10T22:51:42;2.3;;;0.6;;
53674;SDS011;39574;50.534;8.500;2023-05-10T22:56:41;2.3;;;0.6;;
53674;SDS011;39574;50.534;8.500;2023-05-10T23:01:40;2.3;;;0.5;;
53674;SDS011;39574;50.534;8.500;2023-05-10T23:06:40;2.4;;;0.6;;
53674;SDS011;39574;50.534;8.500;2023-05-10T23:11:39;2.3;;;0.6;;
53674;SDS011;39574;50.534;8.500;2023-05-10T23:16:38;2.3;;;0.5;;
53674;SDS011;39574;50.534;8.500;2023-05-10T23:21:37;2.2;;;0.5;;
53674;SDS011;39574;50.534;8.500;2023-05-10T23:26:36;2.2;;;0.6;;
53674;SDS011;39574;50.534;8.500;2023-05-10T23:31:35;2.6;;;0.8;;
53674;SDS011;39574;50.534;8.500;2023-05-10T23:36:34;2.6;;;0.8;;
53674;SDS011;39574;50.534;8.500;2023-05-10T23:41:33;2.5;;;0.8;;
53674;SDS011;39574;50.534;8.500;2023-05-10T23:46:32;2.4;;;0.7;;
53674;SDS011;39574;50.534;8.500;2023-05-10T23:51:31;2.2;;;0.5;;
53674;SDS011;39574;50.534;8.500;2023-05-10T23:56:31;2.2;;;0.5;;
